Time;durP1;ratioP1;P1;durP2;ratioP2;P2;SDS_P1;SDS_P2;PMS_P1;PMS_P2;Temp;Humidity;BMP_temperature;BMP_pressure;BME280_temperature;BME280_humidity;BME280_pressure;Samples;Min_cycle;Max_cycle;Signal;HPM_P1;HPM_P2
2022/09/09 00:02:33;;;;;;;4.18;1.38;;;15.10;99.90;;;-144.05;83.26;125687.94;5066992;28;20029;-89
2022/09/09 00:05:28;;;;;;;4.53;1.17;;;15.00;99.90;;;-144.05;84.26;125687.94;5070597;28;20054;-88
2022/09/09 00:08:01;;;;;;;4.82;1.13;;;15.00;99.90;;;-144.05;84.76;125687.94;5092102;28;20025;-86
2022/09/09 00:10:46;;;;;;;1.88;0.98;;;14.90;99.90;;;-144.05;84.77;125687.94;5076722;28;20117;-88
2022/09/09 00:13:48;;;;;;;3.35;1.00;;;14.90;99.90;;;-144.05;85.01;125687.94;5076667;28;20055;-84
2022/09/09 00:16:24;;;;;;;2.33;0.95;;;14.80;99.90;;;-144.05;85.32;125687.94;5065652;28;20055;-87
2022/09/09 00:19:01;;;;;;;2.78;1.02;;;14.80;99.90;;;-144.05;85.15;125687.94;5078660;28;20029;-87
2022/09/09 00:22:14;;;;;;;2.78;1.20;;;14.80;99.90;;;-144.05;84.98;125687.94;5061848;28;20040;-89
2022/09/09 00:24:53;;;;;;;4.20;1.10;;;14.70;99.90;;;-144.05;85.49;125687.94;5062572;28;20029;-88
2022/09/09 00:27:44;;;;;;;4.05;1.17;;;14.60;99.90;;;-144.05;86.15;125687.94;5081121;28;20063;-87
2022/09/09 00:30:26;;;;;;;3.08;1.30;;;14.60;99.90;;;-144.05;86.90;125687.94;5060780;28;20052;-89
2022/09/09 00:33:11;;;;;;;2.63;1.38;;;14.60;99.90;;;-144.05;87.30;125687.94;5059868;28;20029;-87
2022/09/09 00:35:49;;;;;;;4.57;1.00;;;14.60;99.90;;;-144.05;87.69;125687.94;5077527;28;20025;-89
2022/09/09 00:38:41;;;;;;;4.35;1.10;;;14.50;99.90;;;-144.05;87.88;125687.94;5060347;28;20071;-88
2022/09/09 00:41:51;;;;;;;5.75;1.33;;;14.60;99.90;;;-144.05;88.48;125687.94;5060219;28;20299;-88
2022/09/09 00:44:37;;;;;;;4.53;1.63;;;14.60;99.90;;;-144.05;88.68;125687.94;5059398;28;20033;-87
2022/09/09 00:47:38;;;;;;;2.50;1.23;;;14.60;99.90;;;-144.05;88.26;125687.94;5077117;28;20025;-91
2022/09/09 00:50:55;;;;;;;2.08;1.10;;;14.70;99.90;;;-144.05;88.73;125687.94;5061550;28;20033;-90
2022/09/09 00:53:57;;;;;;;3.20;1.23;;;14.60;99.90;;;-144.05;88.47;125687.94;5062067;28;20036;-88
2022/09/09 00:57:10;;;;;;;3.35;1.25;;;14.60;99.90;;;-144.05;88.63;125687.94;5062454;28;20515;-88
2022/09/09 01:00:19;;;;;;;4.47;1.45;;;14.60;99.90;;;-144.05;88.75;125687.94;5062718;28;20036;-87
2022/09/09 01:03:03;;;;;;;4.93;1.60;;;14.50;99.90;;;-144.05;89.40;125687.94;5063016;28;20051;-88
2022/09/09 01:06:31;;;;;;;4.75;1.77;;;14.60;99.90;;;-144.05;89.59;125687.94;5063564;28;20047;-89
2022/09/09 01:09:11;;;;;;;4.43;1.50;;;14.50;99.90;;;-144.05;89.60;125687.94;5080311;28;20100;-88
2022/09/09 01:12:15;;;;;;;3.15;1.20;;;14.50;99.90;;;-144.05;89.43;125687.94;5065391;28;20020;-89
2022/09/09 01:15:16;;;;;;;4.88;1.13;;;14.50;99.90;;;-144.05;89.36;125687.94;5069526;28;20052;-88
2022/09/09 01:18:05;;;;;;;1.77;1.27;;;14.50;99.90;;;-144.05;89.41;125687.94;5063873;28;20036;-88
2022/09/09 01:21:22;;;;;;;2.03;1.50;;;14.50;99.90;;;-144.05;89.34;125687.94;5064155;28;20059;-89
2022/09/09 01:24:27;;;;;;;4.32;1.23;;;14.40;99.90;;;-144.05;90.05;125687.94;5067427;28;20047;-87
2022/09/09 01:27:03;;;;;;;4.82;1.40;;;14.40;99.90;;;-144.05;90.15;125687.94;5068714;28;20033;-87
2022/09/09 01:29:30;;;;;;;5.03;1.98;;;14.40;99.90;;;-144.05;90.10;125687.94;5069228;28;20436;-87
2022/09/09 01:32:23;;;;;;;4.93;1.77;;;14.40;99.90;;;-144.05;90.02;125687.94;5084424;28;20108;-88
2022/09/09 01:34:51;;;;;;;5.15;1.80;;;14.40;99.90;;;-144.05;89.99;125687.94;5066153;28;20477;-86
2022/09/09 01:37:17;;;;;;;5.43;1.90;;;14.40;99.90;;;-144.05;90.44;125687.94;5068499;28;20076;-90
2022/09/09 01:39:44;;;;;;;6.32;2.20;;;14.50;99.90;;;-144.05;90.49;125687.94;5058000;28;20040;-87
2022/09/09 01:42:16;;;;;;;3.00;1.65;;;14.40;99.90;;;-144.05;90.22;125687.94;5058828;28;20025;-89
2022/09/09 01:44:42;;;;;;;3.60;1.95;;;14.40;99.90;;;-144.05;90.00;125687.94;5058918;28;20021;-88
2022/09/09 01:47:09;;;;;;;3.25;1.95;;;14.50;99.90;;;-144.05;89.93;125687.94;5058848;28;20033;-87
2022/09/09 01:49:38;;;;;;;4.60;1.90;;;14.40;99.90;;;-144.05;90.15;125687.94;5058473;28;20059;-88
2022/09/09 01:52:04;;;;;;;4.53;1.63;;;14.40;99.90;;;-144.05;90.17;125687.94;5058615;28;20354;-89
2022/09/09 01:54:33;;;;;;;5.22;1.80;;;14.40;99.90;;;-144.05;90.54;125687.94;5058096;28;20481;-89
2022/09/09 01:57:15;;;;;;;3.35;1.58;;;14.40;99.90;;;-144.05;90.43;125687.94;5059776;28;20032;-88
2022/09/09 02:00:11;;;;;;;4.28;2.03;;;14.50;99.90;;;-144.05;90.24;125687.94;5062041;28;20044;-90
2022/09/09 02:03:26;;;;;;;7.10;2.08;;;14.40;99.90;;;-144.05;90.52;125687.94;5080031;28;20037;-89
2022/09/09 02:06:35;;;;;;;7.10;1.90;;;14.50;99.90;;;-144.05;90.91;125687.94;5079472;28;20085;-88
2022/09/09 02:09:13;;;;;;;6.97;2.30;;;14.50;99.90;;;-144.05;90.60;125687.94;5062445;28;20049;-89
2022/09/09 02:11:41;;;;;;;3.90;2.00;;;14.60;99.90;;;-144.05;90.37;125687.94;5062350;28;20032;-89
2022/09/09 02:14:27;;;;;;;5.38;1.90;;;14.60;99.90;;;-144.05;90.25;125687.94;5079405;28;20461;-87
2022/09/09 02:17:09;;;;;;;4.75;2.22;;;14.60;99.90;;;-144.05;90.45;125687.94;5062515;28;20045;-86
2022/09/09 02:20:07;;;;;;;4.88;1.80;;;14.70;99.90;;;-144.05;89.99;125687.94;5063157;28;20043;-89
2022/09/09 02:22:39;;;;;;;3.38;1.90;;;14.70;99.90;;;-144.05;89.74;125687.94;5063653;28;20036;-86
2022/09/09 02:25:12;;;;;;;5.00;1.77;;;14.70;99.90;;;-144.05;89.63;125687.94;5062141;28;20033;-89
2022/09/09 02:27:43;;;;;;;4.22;1.80;;;14.70;99.90;;;-144.05;89.58;125687.94;5061779;28;20064;-88
2022/09/09 02:30:12;;;;;;;7.45;1.92;;;14.70;99.90;;;-144.05;89.37;125687.94;5061157;28;20029;-88
2022/09/09 02:32:43;;;;;;;7.82;2.22;;;14.70;99.90;;;-144.05;88.96;125687.94;5063384;28;20033;-90
2022/09/09 02:35:21;;;;;;;5.07;1.80;;;14.70;99.90;;;-144.05;89.31;125687.94;5062177;28;20079;-87
2022/09/09 02:37:51;;;;;;;4.43;1.75;;;14.60;99.90;;;-144.05;89.44;125687.94;5060854;28;20039;-90
2022/09/09 02:40:17;;;;;;;7.38;1.75;;;14.70;99.90;;;-144.05;89.22;125687.94;5061818;28;20067;-87
2022/09/09 02:42:49;;;;;;;7.07;1.90;;;14.60;99.90;;;-144.05;89.44;125687.94;5063028;28;20062;-89
2022/09/09 02:45:42;;;;;;;6.00;1.90;;;14.60;99.90;;;-144.05;89.49;125687.94;5063784;28;20146;-88
2022/09/09 02:48:58;;;;;;;6.65;1.85;;;14.60;99.90;;;-144.05;89.15;125687.94;5064600;28;20247;-88
2022/09/09 02:52:06;;;;;;;6.82;2.00;;;14.60;99.90;;;-144.05;89.46;125687.94;5063543;28;20401;-88
2022/09/09 02:54:39;;;;;;;5.00;1.45;;;14.60;99.90;;;-144.05;89.51;125687.94;5063858;28;20094;-91
2022/09/09 02:57:30;;;;;;;4.95;1.83;;;14.60;99.90;;;-144.05;89.34;125687.94;5063397;28;20025;-90
2022/09/09 03:00:01;;;;;;;5.00;1.80;;;14.60;99.90;;;-144.05;89.01;125687.94;5063507;28;20040;-90
2022/09/09 03:02:27;;;;;;;5.28;1.40;;;14.60;99.90;;;-144.05;88.53;125687.94;5065386;28;20048;-89
2022/09/09 03:04:53;;;;;;;4.03;1.77;;;14.60;99.90;;;-144.05;88.56;125687.94;5062272;28;20389;-89
2022/09/09 03:07:20;;;;;;;7.15;1.67;;;14.60;99.90;;;-144.05;88.38;125687.94;5063377;28;20025;-89
2022/09/09 03:09:47;;;;;;;3.60;1.40;;;14.60;99.90;;;-144.05;88.13;125687.94;5063370;28;20028;-92
2022/09/09 03:12:13;;;;;;;5.38;1.83;;;14.60;99.90;;;-144.05;88.00;125687.94;5064537;28;20089;-91
2022/09/09 03:14:39;;;;;;;4.90;1.73;;;14.60;99.90;;;-144.05;87.93;125687.94;5064626;28;20024;-90
2022/09/09 03:17:06;;;;;;;4.75;1.95;;;14.70;99.90;;;-144.05;87.54;125687.94;5066834;28;20059;-89
2022/09/09 03:19:32;;;;;;;3.92;1.55;;;14.60;99.90;;;-144.05;87.35;125687.94;5073465;28;20032;-91
2022/09/09 03:21:59;;;;;;;8.25;1.63;;;14.70;99.90;;;-144.05;86.83;125687.94;5073716;28;20040;-91
2022/09/09 03:24:25;;;;;;;5.70;1.85;;;14.60;99.90;;;-144.05;86.99;125687.94;5074778;28;20025;-87
2022/09/09 03:26:51;;;;;;;3.95;1.23;;;14.70;99.90;;;-144.05;86.81;125687.94;5072964;28;20036;-89
2022/09/09 03:29:18;;;;;;;4.25;1.50;;;14.70;99.90;;;-144.05;86.62;125687.94;5069062;28;20029;-87
2022/09/09 03:31:46;;;;;;;5.55;1.60;;;14.70;99.90;;;-144.05;86.45;125687.94;5070439;28;20057;-90
2022/09/09 03:34:13;;;;;;;6.35;1.90;;;14.70;99.90;;;-144.05;86.70;125687.94;5060966;28;20108;-90
2022/09/09 03:36:41;;;;;;;5.40;1.33;;;14.80;99.90;;;-144.05;86.82;125687.94;5059275;28;20031;-90
2022/09/09 03:39:07;;;;;;;6.25;2.33;;;14.60;99.90;;;-144.05;86.97;125687.94;5060207;28;20457;-89
2022/09/09 03:41:34;;;;;;;3.60;1.27;;;14.60;99.90;;;-144.05;86.80;125687.94;5060515;28;20068;-88
2022/09/09 03:43:59;;;;;;;4.13;1.35;;;14.60;99.90;;;-144.05;86.90;125687.94;5059705;28;20075;-90
2022/09/09 03:46:26;;;;;;;2.85;1.35;;;14.70;99.90;;;-144.05;86.43;125687.94;5060566;28;20025;-89
2022/09/09 03:48:52;;;;;;;4.47;1.67;;;14.60;99.90;;;-144.05;86.62;125687.94;5064626;28;20033;-89
2022/09/09 03:51:19;;;;;;;3.85;1.60;;;14.50;99.90;;;-144.05;86.50;125687.94;5062312;28;20075;-90
2022/09/09 03:53:45;;;;;;;6.07;1.63;;;14.50;99.90;;;-144.05;86.80;125687.94;5059317;28;20187;-90
2022/09/09 03:56:10;;;;;;;5.80;1.60;;;14.50;99.90;;;-144.05;87.07;125687.94;5057812;28;20243;-90
2022/09/09 03:58:37;;;;;;;7.53;1.75;;;14.40;99.90;;;-144.05;87.38;125687.94;5058995;28;20032;-87
2022/09/09 04:01:13;;;;;;;5.15;1.55;;;14.40;99.90;;;-144.05;87.55;125687.94;5059316;28;20075;-87
2022/09/09 04:03:44;;;;;;;4.50;1.73;;;14.40;99.90;;;-144.05;87.48;125687.94;5077107;28;20032;-89
2022/09/09 04:06:14;;;;;;;7.53;1.98;;;14.40;99.90;;;-144.05;87.56;125687.94;5061282;28;20108;-88
2022/09/09 04:08:41;;;;;;;4.13;1.45;;;14.50;99.90;;;-144.05;87.77;125687.94;5059208;28;20067;-88
2022/09/09 04:11:08;;;;;;;7.55;2.15;;;14.50;99.90;;;-144.05;87.57;125687.94;5059519;28;20033;-89
2022/09/09 04:13:38;;;;;;;4.55;1.45;;;14.50;99.90;;;-144.05;87.22;125687.94;5060138;28;20029;-88
2022/09/09 04:16:06;;;;;;;4.80;2.03;;;14.50;99.90;;;-144.05;86.94;125687.94;5058194;28;20063;-90
2022/09/09 04:18:32;;;;;;;5.40;1.80;;;14.60;99.90;;;-144.05;86.83;125687.94;5055515;28;20082;-88
2022/09/09 04:20:58;;;;;;;6.05;1.73;;;14.60;99.90;;;-144.05;86.65;125687.94;5054249;28;20143;-85
2022/09/09 04:23:29;;;;;;;6.10;1.60;;;14.60;99.90;;;-144.05;86.57;125687.94;5055129;28;20112;-89
2022/09/09 04:25:58;;;;;;;6.03;1.58;;;14.60;99.90;;;-144.05;86.22;125687.94;5055783;28;20032;-88
2022/09/09 04:28:29;;;;;;;8.85;1.52;;;14.60;99.90;;;-144.05;86.51;125687.94;5055757;28;20021;-88
2022/09/09 04:31:04;;;;;;;4.43;1.83;;;14.60;99.90;;;-144.05;86.24;125687.94;5056303;28;20029;-91
2022/09/09 04:33:31;;;;;;;4.93;1.92;;;14.70;99.90;;;-144.05;86.17;125687.94;5072795;28;20028;-89
2022/09/09 04:35:57;;;;;;;5.20;2.15;;;14.70;99.90;;;-144.05;86.15;125687.94;5055393;28;20060;-90
2022/09/09 04:38:23;;;;;;;7.93;1.55;;;14.80;99.90;;;-144.05;86.57;125687.94;5054797;28;20028;-92
2022/09/09 04:40:53;;;;;;;3.80;2.05;;;14.80;99.90;;;-144.05;86.15;125687.94;5054421;28;20166;-89
2022/09/09 04:43:20;;;;;;;6.35;1.60;;;14.90;99.90;;;-144.05;85.74;125687.94;5055057;28;20029;-92
2022/09/09 04:45:51;;;;;;;4.47;2.08;;;14.90;99.90;;;-144.05;85.51;125687.94;5055347;28;20036;-89
2022/09/09 04:48:19;;;;;;;8.80;1.88;;;14.90;99.90;;;-144.05;85.36;125687.94;5054966;28;20128;-91
2022/09/09 04:51:12;;;;;;;3.60;1.80;;;14.90;99.90;;;-144.05;85.61;125687.94;5055088;28;20077;-90
2022/09/09 04:53:40;;;;;;;6.25;1.60;;;14.90;99.90;;;-144.05;85.49;125687.94;5055687;28;20125;-90
2022/09/09 04:56:16;;;;;;;6.82;2.17;;;15.00;99.90;;;-144.05;84.87;125687.94;5074188;28;20013;-88
2022/09/09 04:58:43;;;;;;;5.25;1.88;;;15.00;99.90;;;-144.05;84.71;125687.94;5072433;28;20484;-90
2022/09/09 05:01:19;;;;;;;7.50;1.52;;;14.90;99.90;;;-144.05;84.84;125687.94;5055874;28;20040;-88
2022/09/09 05:03:46;;;;;;;6.45;1.88;;;14.90;99.90;;;-144.05;85.02;125687.94;5071621;28;20029;-92
2022/09/09 05:06:20;;;;;;;5.85;1.58;;;14.90;99.90;;;-144.05;85.23;125687.94;5054621;28;20119;-91
2022/09/09 05:08:48;;;;;;;9.18;2.40;;;14.80;99.90;;;-144.05;85.09;125687.94;5055769;28;20481;-91
2022/09/09 05:11:26;;;;;;;7.55;2.20;;;14.90;99.90;;;-144.05;85.43;125687.94;5055749;28;20032;-87
2022/09/09 05:13:54;;;;;;;5.32;2.05;;;14.80;99.90;;;-144.05;85.48;125687.94;5056577;28;20122;-89
2022/09/09 05:16:26;;;;;;;5.07;2.10;;;14.80;99.90;;;-144.05;85.75;125687.94;5057969;28;20037;-88
2022/09/09 05:18:52;;;;;;;4.95;2.05;;;14.80;99.90;;;-144.05;85.64;125687.94;5059835;28;20029;-89
2022/09/09 05:21:23;;;;;;;10.65;2.08;;;14.80;99.90;;;-144.05;85.82;125687.94;5057171;28;20040;-90
2022/09/09 05:23:51;;;;;;;12.07;2.22;;;14.90;99.90;;;-144.05;85.84;125687.94;5067765;28;20365;-89
2022/09/09 05:26:21;;;;;;;11.70;2.20;;;14.90;99.90;;;-144.05;85.77;125687.94;5068142;28;20043;-89
2022/09/09 05:28:48;;;;;;;9.02;2.50;;;14.90;99.90;;;-144.05;85.64;125687.94;5057035;28;20083;-90
2022/09/09 05:31:19;;;;;;;5.43;2.05;;;15.00;99.90;;;-144.05;85.49;125687.94;5057214;28;20029;-90
2022/09/09 05:33:49;;;;;;;7.68;1.98;;;15.00;99.90;;;-144.05;85.56;125687.94;5058042;28;20033;-88
2022/09/09 05:36:24;;;;;;;10.15;2.08;;;15.00;99.90;;;-144.05;85.31;125687.94;5057881;28;20025;-87
2022/09/09 05:38:53;;;;;;;7.20;2.47;;;15.10;99.90;;;-144.05;85.25;125687.94;5058170;28;20029;-88
2022/09/09 05:41:19;;;;;;;7.88;2.00;;;15.10;99.90;;;-144.05;85.20;125687.94;5058245;28;20043;-89
2022/09/09 05:43:48;;;;;;;4.90;2.33;;;15.20;99.90;;;-144.05;84.72;125687.94;5060135;28;20075;-90
2022/09/09 05:46:20;;;;;;;7.28;1.95;;;15.20;99.90;;;-144.05;84.48;125687.94;5059284;28;20534;-88
2022/09/09 05:48:50;;;;;;;11.57;2.83;;;15.20;99.90;;;-144.05;84.56;125687.94;5057961;28;20043;-89
2022/09/09 05:51:24;;;;;;;7.25;1.83;;;15.30;99.90;;;-144.05;84.18;125687.94;5058272;28;20025;-90
2022/09/09 05:53:51;;;;;;;6.07;2.22;;;15.30;99.90;;;-144.05;83.84;125687.94;5058412;28;20037;-92
2022/09/09 05:56:25;;;;;;;6.18;2.25;;;15.40;99.90;;;-144.05;83.83;125687.94;5059939;28;20100;-91
2022/09/09 05:58:56;;;;;;;9.40;2.28;;;15.40;99.90;;;-144.05;84.07;125687.94;5060668;28;20025;-90
2022/09/09 06:01:28;;;;;;;9.45;1.98;;;15.40;99.90;;;-144.05;83.74;125687.94;5060815;28;20053;-88
2022/09/09 06:03:56;;;;;;;5.38;2.67;;;15.40;99.90;;;-144.05;83.29;125687.94;5061250;28;20021;-89
2022/09/09 06:06:29;;;;;;;3.80;1.95;;;15.50;99.90;;;-144.05;83.15;125687.94;5062668;28;20615;-90
2022/09/09 06:09:00;;;;;;;10.10;1.65;;;15.50;99.90;;;-144.05;82.76;125687.94;5063859;28;20024;-89
2022/09/09 06:11:33;;;;;;;8.40;2.08;;;15.60;99.90;;;-144.05;82.69;125687.94;5067176;28;20032;-89
2022/09/09 06:14:05;;;;;;;10.40;2.28;;;15.70;99.90;;;-144.05;82.46;125687.94;5071843;28;20017;-89
2022/09/09 06:16:34;;;;;;;7.03;1.90;;;15.80;99.90;;;-144.05;81.84;125687.94;5074995;28;20021;-89
2022/09/09 06:19:03;;;;;;;4.68;1.95;;;15.80;99.90;;;-144.05;81.98;125687.94;5087369;28;20037;-91
2022/09/09 06:21:37;;;;;;;4.70;1.80;;;15.80;99.90;;;-144.05;82.02;125687.94;5065816;28;20033;-91
2022/09/09 06:24:07;;;;;;;4.78;1.75;;;15.80;99.90;;;-144.05;81.56;125687.94;5082255;28;20472;-88
2022/09/09 06:26:40;;;;;;;10.73;1.83;;;15.80;99.90;;;-144.05;81.52;125687.94;5065625;28;20025;-90
2022/09/09 06:29:07;;;;;;;4.40;1.73;;;15.90;99.90;;;-144.05;81.34;125687.94;5065551;28;20123;-90
2022/09/09 06:31:36;;;;;;;7.30;1.90;;;15.90;99.90;;;-144.05;81.04;125687.94;5061764;28;20041;-91
2022/09/09 06:34:07;;;;;;;8.98;1.70;;;16.00;99.90;;;-144.05;81.16;125687.94;5057471;28;20033;-90
2022/09/09 06:36:38;;;;;;;8.27;1.60;;;16.00;99.90;;;-144.05;80.54;125687.94;5057307;28;20414;-90
2022/09/09 06:39:09;;;;;;;6.40;1.42;;;16.00;99.90;;;-144.05;80.03;125687.94;5056491;28;20029;-89
2022/09/09 06:41:37;;;;;;;8.98;1.92;;;16.10;99.90;;;-144.05;80.27;125687.94;5057236;28;20040;-91
2022/09/09 06:44:04;;;;;;;6.32;1.92;;;16.20;99.90;;;-144.05;79.87;125687.94;5059662;28;20021;-93
2022/09/09 06:46:35;;;;;;;8.15;1.80;;;16.20;99.90;;;-144.05;79.44;125687.94;5062061;28;20573;-90
2022/09/09 06:49:12;;;;;;;6.25;1.58;;;16.20;99.90;;;-144.05;79.77;125687.94;5062399;28;20025;-91
2022/09/09 06:51:44;;;;;;;3.67;1.20;;;16.30;99.90;;;-144.05;78.60;125687.94;5066138;28;20083;-91
2022/09/09 06:54:27;;;;;;;5.32;1.73;;;16.40;99.90;;;-144.05;78.66;125687.94;5065993;28;20049;-92
2022/09/09 06:57:00;;;;;;;2.83;1.30;;;16.50;99.90;;;-144.05;77.90;125687.94;5064579;28;20040;-88
2022/09/09 06:59:53;;;;;;;6.43;1.50;;;16.50;99.90;;;-144.05;77.73;125687.94;5081202;28;20410;-91
2022/09/09 07:02:39;;;;;;;6.22;1.48;;;16.50;99.90;;;-144.05;76.89;125687.94;5064422;28;20041;-89
2022/09/09 07:05:11;;;;;;;6.72;1.25;;;16.60;99.90;;;-144.05;76.97;125687.94;5065071;28;20032;-90
2022/09/09 07:07:52;;;;;;;;;;;;;;;;;;;;;
2022/09/09 07:10:27;;;;;;;5.60;1.50;;;16.60;99.90;;;-144.05;76.46;125687.94;5068320;28;20064;-91
2022/09/09 07:13:16;;;;;;;11.60;1.80;;;16.60;99.90;;;-144.05;76.84;125687.94;5065106;28;20029;-87
2022/09/09 07:15:55;;;;;;;6.50;1.33;;;16.60;99.90;;;-144.05;75.81;125687.94;5071764;28;20396;-86
2022/09/09 07:19:25;;;;;;;6.90;1.73;;;16.70;99.90;;;-144.05;75.20;125687.94;5074644;28;20069;-88
2022/09/09 07:22:26;;;;;;;;;;;;;;;;;;;;;
2022/09/09 07:25:02;;;;;;;4.97;1.42;;;16.80;99.90;;;-144.05;74.23;125687.94;5071258;28;20057;-89
2022/09/09 07:27:28;;;;;;;;;;;16.80;99.90;;;-144.05;74.24;125687.94;5061165;28;20028;-90
2022/09/09 07:30:02;;;;;;;6.18;1.55;;;16.80;99.90;;;-144.05;74.22;125687.94;5061978;28;19947;-90
2022/09/09 07:32:48;;;;;;;3.08;1.05;;;16.80;99.90;;;-144.05;73.59;125687.94;5063190;28;20077;-89
2022/09/09 07:35:15;;;;;;;7.10;1.45;;;16.80;99.90;;;-144.05;73.70;125687.94;5061434;28;20045;-90
2022/09/09 07:37:41;;;;;;;4.03;1.05;;;16.80;99.90;;;-144.05;72.56;125687.94;5058276;28;20438;-88
2022/09/09 07:40:07;;;;;;;3.88;1.10;;;17.10;99.90;;;-144.05;72.15;125687.94;5060501;28;20039;-88
2022/09/09 07:42:33;;;;;;;4.30;1.20;;;17.20;99.90;;;-144.05;71.50;125687.94;5059052;28;20032;-90
2022/09/09 07:44:59;;;;;;;5.30;0.98;;;17.50;99.90;;;-144.05;69.17;125687.94;5060157;28;20025;-91
2022/09/09 07:47:25;;;;;;;3.95;1.05;;;18.00;99.90;;;-144.05;66.55;125687.94;5059256;28;20032;-89
2022/09/09 07:49:50;;;;;;;4.72;1.20;;;18.60;99.90;;;-144.05;65.67;125687.94;5062151;28;20025;-88
2022/09/09 07:52:16;;;;;;;2.58;0.77;;;19.00;99.90;;;-144.05;63.18;125687.94;5064230;28;20086;-89
2022/09/09 07:54:42;;;;;;;1.73;0.90;;;19.30;99.90;;;-144.05;63.19;125687.94;5058846;28;20021;-88
2022/09/09 07:57:08;;;;;;;6.20;1.17;;;19.40;99.90;;;-144.05;63.14;125687.94;5058451;28;20041;-93
2022/09/09 07:59:34;;;;;;;3.22;1.00;;;19.50;99.90;;;-144.05;62.64;125687.94;5058792;28;20025;-87
2022/09/09 08:02:01;;;;;;;6.25;1.40;;;19.30;99.90;;;-144.05;62.28;125687.94;5059027;28;20097;-90
2022/09/09 08:04:28;;;;;;;3.85;0.85;;;19.20;99.90;;;-144.05;64.34;125687.94;5060628;28;20096;-87
2022/09/09 08:07:00;;;;;;;3.92;1.15;;;18.90;99.90;;;-144.05;66.65;125687.94;5057469;28;20021;-90
2022/09/09 08:09:29;;;;;;;4.82;0.93;;;18.50;99.90;;;-144.05;66.04;125687.94;5059169;28;20041;-86
2022/09/09 08:11:58;;;;;;;3.95;1.00;;;18.40;99.90;;;-144.05;65.01;125687.94;5058275;28;20064;-87
2022/09/09 08:14:24;;;;;;;2.80;0.80;;;18.60;99.90;;;-144.05;63.30;125687.94;5059226;28;20029;-89
2022/09/09 08:16:50;;;;;;;3.47;1.35;;;19.20;99.90;;;-144.05;61.47;125687.94;5075319;28;20370;-88
2022/09/09 08:19:17;;;;;;;5.82;1.65;;;19.40;99.90;;;-144.05;61.72;125687.94;5058399;28;20554;-89
2022/09/09 08:21:45;;;;;;;6.45;1.30;;;19.50;99.90;;;-144.05;61.89;125687.94;5052700;28;20036;-88
2022/09/09 08:24:16;;;;;;;2.65;1.00;;;19.30;99.90;;;-144.05;60.04;125687.94;5054556;28;20056;-86
2022/09/09 08:26:49;;;;;;;4.43;1.23;;;19.40;99.90;;;-144.05;60.89;125687.94;5053533;28;20037;-91
2022/09/09 08:29:16;;;;;;;8.13;1.42;;;19.30;99.90;;;-144.05;61.34;125687.94;5053274;28;20029;-92
2022/09/09 08:31:54;;;;;;;3.72;1.17;;;19.10;99.90;;;-144.05;61.03;125687.94;5055144;28;20037;-91
2022/09/09 08:34:24;;;;;;;4.63;1.38;;;19.10;99.90;;;-144.05;60.87;125687.94;5053574;28;20513;-90
2022/09/09 08:36:51;;;;;;;6.95;1.60;;;19.30;99.90;;;-144.05;59.09;125687.94;5052152;28;20473;-88
2022/09/09 08:39:22;;;;;;;4.97;1.25;;;19.40;99.90;;;-144.05;58.53;125687.94;5035484;28;20038;-89
2022/09/09 08:42:23;;;;;;;6.47;0.98;;;19.60;99.90;;;-144.05;57.88;125687.94;5036095;28;20049;-90
2022/09/09 08:45:28;;;;;;;4.72;1.25;;;19.70;99.90;;;-144.05;57.34;125687.94;5053057;28;20029;-90
2022/09/09 08:48:36;;;;;;;7.90;1.45;;;19.80;99.90;;;-144.05;56.88;125687.94;5036876;28;20025;-86
2022/09/09 08:51:07;;;;;;;7.43;0.85;;;19.60;99.90;;;-144.05;57.10;125687.94;5035805;28;20120;-88
2022/09/09 08:53:49;;;;;;;3.75;1.35;;;19.80;99.90;;;-144.05;55.48;125687.94;5052902;28;20126;-86
2022/09/09 08:56:23;;;;;;;6.40;1.30;;;20.60;99.90;;;-144.05;52.66;125687.94;5052688;28;20152;-88
2022/09/09 08:58:53;;;;;;;6.43;1.20;;;21.10;99.90;;;-144.05;53.33;125687.94;5037980;28;20079;-86
2022/09/09 09:01:43;;;;;;;5.80;1.10;;;21.70;99.90;;;-144.05;50.12;125687.94;5035906;28;20033;-86
2022/09/09 09:05:09;;;;;;;6.13;1.42;;;21.90;99.90;;;-144.05;51.70;125687.94;5034336;28;20022;-87
2022/09/09 09:08:37;;;;;;;4.95;1.13;;;21.70;99.90;;;-144.05;50.87;125687.94;5058635;28;20033;-88
2022/09/09 09:11:05;;;;;;;4.35;1.02;;;21.50;99.90;;;-144.05;51.10;125687.94;5038098;28;20083;-88
2022/09/09 09:13:51;;;;;;;4.55;1.20;;;21.70;99.90;;;-144.05;50.11;125687.94;5037804;28;20025;-87
2022/09/09 09:16:35;;;;;;;;;;;21.70;99.90;;;-144.05;50.49;125687.94;5054813;28;20033;-88
2022/09/09 09:19:01;;;;;;;7.88;1.20;;;21.70;99.90;;;-144.05;50.50;125687.94;5038149;28;19916;-88
2022/09/09 09:22:04;;;;;;;4.95;0.95;;;21.50;99.90;;;-144.05;51.59;125687.94;5038533;28;20138;-90
2022/09/09 09:25:13;;;;;;;4.63;1.08;;;21.10;99.90;;;-144.05;50.56;125687.94;5041811;28;20014;-85
2022/09/09 09:28:20;;;;;;;5.38;1.20;;;21.40;99.90;;;-144.05;49.80;125687.94;5038690;28;20369;-88
2022/09/09 09:30:58;;;;;;;8.82;2.03;;;21.20;99.90;;;-144.05;49.37;125687.94;5055424;28;20025;-90
2022/09/09 09:34:02;;;;;;;4.15;1.20;;;21.60;99.90;;;-144.05;48.18;125687.94;5039082;28;20032;-87
2022/09/09 09:37:01;;;;;;;6.65;1.13;;;21.70;99.90;;;-144.05;47.58;125687.94;5038735;28;20033;-89
2022/09/09 09:39:36;;;;;;;3.55;0.70;;;21.90;99.90;;;-144.05;49.26;125687.94;5055741;28;20052;-88
2022/09/09 09:42:28;;;;;;;7.93;1.40;;;21.60;99.90;;;-144.05;49.64;125687.94;5055046;28;20033;-89
2022/09/09 09:44:54;;;;;;;8.40;1.58;;;21.30;99.90;;;-144.05;50.17;125687.94;5059888;28;20034;-87
2022/09/09 09:47:23;;;;;;;5.60;1.02;;;21.10;99.90;;;-144.05;49.47;125687.94;5050924;28;20029;-86
2022/09/09 09:50:00;;;;;;;10.45;1.50;;;20.70;99.90;;;-144.05;50.36;125687.94;5066515;28;20104;-89
2022/09/09 09:52:31;;;;;;;4.97;0.82;;;20.40;99.90;;;-144.05;50.77;125687.94;5065770;28;20040;-86
2022/09/09 09:55:13;;;;;;;6.72;1.48;;;20.40;99.90;;;-144.05;50.29;125687.94;5040209;28;20033;-86
2022/09/09 09:57:39;;;;;;;5.20;1.55;;;20.40;99.90;;;-144.05;50.24;125687.94;5054066;28;20029;-88
2022/09/09 10:00:17;;;;;;;3.25;0.93;;;20.50;99.90;;;-144.05;49.88;125687.94;5036525;28;20124;-87
2022/09/09 10:02:46;;;;;;;6.13;1.40;;;20.50;99.90;;;-144.05;49.64;125687.94;5038368;28;20036;-88
2022/09/09 10:05:25;;;;;;;5.85;1.13;;;20.80;99.90;;;-144.05;49.07;125687.94;5037059;28;20025;-88
2022/09/09 10:08:17;;;;;;;4.20;1.20;;;21.20;99.90;;;-144.05;50.03;125687.94;5036311;28;20021;-90
2022/09/09 10:11:24;;;;;;;3.42;1.05;;;20.90;99.90;;;-144.05;51.22;125687.94;5053170;28;20052;-87
2022/09/09 10:14:43;;;;;;;4.18;1.35;;;20.50;99.90;;;-144.05;52.31;125687.94;5054097;28;20026;-84
2022/09/09 10:17:21;;;;;;;4.47;1.15;;;19.90;99.90;;;-144.05;53.74;125687.94;5050189;28;20029;-88
2022/09/09 10:20:10;;;;;;;5.72;1.73;;;19.60;99.90;;;-144.05;52.50;125687.94;5037697;28;20091;-88
2022/09/09 10:22:49;;;;;;;6.63;1.40;;;19.50;99.90;;;-144.05;53.01;125687.94;5037504;28;20576;-87
2022/09/09 10:26:03;;;;;;;8.75;1.13;;;19.60;99.90;;;-144.05;52.11;125687.94;5054490;28;20021;-88
2022/09/09 10:29:23;;;;;;;6.05;1.10;;;20.40;99.90;;;-144.05;48.83;125687.94;5039548;28;20037;-88
2022/09/09 10:32:37;;;;;;;3.90;1.00;;;21.60;99.90;;;-144.05;48.03;125687.94;5038690;28;20033;-85
2022/09/09 10:36:11;;;;;;;4.10;1.05;;;22.10;99.90;;;-144.05;46.13;125687.94;5055455;28;20481;-88
2022/09/09 10:38:57;;;;;;;2.95;1.00;;;22.60;99.90;;;-144.05;44.34;125687.94;5055315;28;20022;-88
2022/09/09 10:41:45;;;;;;;4.18;1.40;;;23.00;99.90;;;-144.05;44.64;125687.94;5055655;28;20401;-89
2022/09/09 10:44:51;;;;;;;7.43;1.27;;;22.40;99.90;;;-144.05;45.59;125687.94;5040276;28;20489;-90
2022/09/09 10:48:14;;;;;;;5.32;1.20;;;22.20;99.90;;;-144.05;45.02;125687.94;5057692;28;20093;-88
2022/09/09 10:50:55;;;;;;;3.58;0.80;;;22.20;99.90;;;-144.05;44.70;125687.94;5040162;28;20041;-89